createdAt,value
2018-11-21T11:25:08.353Z,1013.62
2018-11-21T11:26:08.214Z,1013.66
2018-11-21T11:28:02.221Z,1013.65
2018-11-21T11:29:01.101Z,1013.56
2018-11-21T11:30:53.970Z,1013.56
2018-11-21T11:31:53.931Z,1013.56
2018-11-21T11:33:47.027Z,1013.54
2018-11-21T11:34:46.912Z,1013.53
2018-11-21T11:36:39.984Z,1013.49
2018-11-21T11:37:39.876Z,1013.55
2018-11-21T11:39:32.959Z,1013.52
2018-11-21T11:40:32.823Z,1013.56
2018-11-21T11:42:25.772Z,1013.57
2018-11-21T11:43:25.677Z,1013.58
2018-11-21T11:45:18.664Z,1013.64
2018-11-21T11:46:18.628Z,1013.64
2018-11-21T11:48:11.781Z,1013.72
2018-11-21T11:49:11.588Z,1013.69
2018-11-21T11:51:04.750Z,1013.69
2018-11-21T11:52:04.541Z,1013.69
2018-11-21T11:53:57.690Z,1013.72
2018-11-21T11:54:57.491Z,1013.70
2018-11-21T11:55:57.472Z,1013.69
2018-11-21T11:56:57.449Z,1013.68
2018-11-21T11:57:57.608Z,1013.64
2018-11-21T11:58:57.391Z,1013.64
2018-11-21T11:59:57.510Z,1013.65
2018-11-21T12:00:57.528Z,1013.67
2018-11-21T12:01:57.520Z,1013.67
2018-11-21T12:02:57.291Z,1013.62
2018-11-21T12:03:57.858Z,1013.69
2018-11-21T12:04:57.241Z,1013.69
2018-11-21T12:05:57.269Z,1013.62
2018-11-21T12:06:57.201Z,1013.64
2018-11-21T12:07:57.259Z,1013.67
2018-11-21T12:08:57.131Z,1013.61
2018-11-21T12:09:57.174Z,1013.60
2018-11-21T12:10:57.083Z,1013.57
2018-11-21T12:11:57.052Z,1013.66
2018-11-21T12:12:57.093Z,1013.62
2018-11-21T12:13:57.005Z,1013.64
2018-11-21T12:14:57.107Z,1013.60
2018-11-21T12:15:56.961Z,1013.64
2018-11-21T12:16:56.930Z,1013.64
2018-11-21T12:17:56.902Z,1013.69
2018-11-21T12:18:56.932Z,1013.66
2018-11-21T12:19:56.860Z,1013.65
2018-11-21T12:20:56.940Z,1013.63
2018-11-21T12:21:56.802Z,1013.63
2018-11-21T12:22:56.854Z,1013.59
2018-11-21T12:23:56.740Z,1013.57
2018-11-21T12:24:56.765Z,1013.59
2018-11-21T12:25:56.689Z,1013.57
2018-11-21T12:26:56.780Z,1013.56
2018-11-21T12:27:56.641Z,1013.58
2018-11-21T12:28:56.692Z,1013.56
2018-11-21T12:29:56.593Z,1013.57
2018-11-21T12:30:56.602Z,1013.60
2018-11-21T12:31:56.540Z,1013.61
2018-11-21T12:32:56.570Z,1013.58
2018-11-21T12:33:56.571Z,1013.58
2018-11-21T12:34:56.532Z,1013.56
2018-11-21T12:35:56.429Z,1013.55
2018-11-21T12:36:56.447Z,1013.52
2018-11-21T12:37:56.452Z,1013.48
2018-11-21T12:38:56.380Z,1013.52
2018-11-21T12:39:56.451Z,1013.51
2018-11-21T12:40:56.299Z,1013.48
2018-11-21T12:41:56.381Z,1013.52
2018-11-21T12:42:56.249Z,1013.55
2018-11-21T12:43:56.220Z,1013.55
2018-11-21T12:44:56.291Z,1013.57
2018-11-21T12:45:56.191Z,1013.55
2018-11-21T12:46:56.200Z,1013.56
2018-11-21T12:47:56.131Z,1013.49
2018-11-21T12:48:56.090Z,1013.56
2018-11-21T12:49:56.121Z,1013.57
2018-11-21T12:50:56.042Z,1013.59
2018-11-21T12:51:56.030Z,1013.65
2018-11-21T12:52:55.981Z,1013.60
2018-11-21T12:53:55.960Z,1013.61
2018-11-21T12:54:55.928Z,1013.58
2018-11-21T12:55:55.966Z,1013.56
2018-11-21T12:56:55.909Z,1013.55
2018-11-21T12:57:55.889Z,1013.53
2018-11-21T12:58:55.885Z,1013.50
2018-11-21T12:59:55.806Z,1013.54
2018-11-21T13:00:55.789Z,1013.50
2018-11-21T13:01:55.759Z,1013.50
2018-11-21T13:02:55.813Z,1013.49
2018-11-21T13:03:55.702Z,1013.47
2018-11-21T13:04:55.724Z,1013.43
2018-11-21T13:05:55.657Z,1013.46
2018-11-21T13:06:55.736Z,1013.46
2018-11-21T13:07:55.599Z,1013.50
2018-11-21T13:08:55.647Z,1013.51
2018-11-21T13:09:56.807Z,1013.52
2018-11-21T13:10:55.518Z,1013.57
2018-11-21T13:11:55.558Z,1013.57
2018-11-21T13:12:55.485Z,1013.53
2018-11-21T13:13:55.470Z,1013.54
2018-11-21T13:14:55.419Z,1013.52
2018-11-21T13:15:55.397Z,1013.55
2018-11-21T13:16:55.388Z,1013.54
2018-11-21T13:17:55.328Z,1013.48
2018-11-21T13:18:55.409Z,1013.45
2018-11-21T13:19:55.312Z,1013.48
2018-11-21T13:20:55.259Z,1013.45
2018-11-21T13:21:55.318Z,1013.43
2018-11-21T13:22:55.209Z,1013.46
2018-11-21T13:23:55.239Z,1013.52
2018-11-21T13:24:55.150Z,1013.49
2018-11-21T13:25:55.234Z,1013.50
2018-11-21T13:26:55.106Z,1013.51
2018-11-21T13:27:55.158Z,1013.51
2018-11-21T13:28:55.051Z,1013.51
2018-11-21T13:29:55.064Z,1013.46
2018-11-21T13:30:54.988Z,1013.46
2018-11-21T13:31:55.076Z,1013.47
2018-11-21T13:32:54.944Z,1013.48
2018-11-21T13:33:54.989Z,1013.48
2018-11-21T13:34:54.889Z,1013.45
2018-11-21T13:35:54.945Z,1013.50
2018-11-21T13:36:54.828Z,1013.51
2018-11-21T13:37:54.832Z,1013.56
2018-11-21T13:38:54.784Z,1013.60
2018-11-21T13:39:54.840Z,1013.61
2018-11-21T13:40:54.728Z,1013.64
2018-11-21T13:41:54.843Z,1013.68
2018-11-21T13:42:54.686Z,1013.73
2018-11-21T13:43:55.778Z,1013.73
2018-11-21T13:44:54.626Z,1013.74
2018-11-21T13:45:54.677Z,1013.73
2018-11-21T13:46:54.650Z,1013.74
2018-11-21T13:47:54.602Z,1013.73
2018-11-21T13:48:55.630Z,1013.72
2018-11-21T13:49:54.691Z,1013.77
2018-11-21T13:50:54.518Z,1013.74
2018-11-21T13:51:54.491Z,1013.76
2018-11-21T13:52:54.516Z,1013.78
2018-11-21T13:53:54.397Z,1013.70
2018-11-21T13:54:54.429Z,1013.73
2018-11-21T13:55:54.326Z,1013.74
2018-11-21T13:56:54.297Z,1013.74
2018-11-21T13:57:54.339Z,1013.70
2018-11-21T13:58:54.358Z,1013.69
2018-11-21T13:59:54.215Z,1013.68
2018-11-21T14:00:54.274Z,1013.66
2018-11-21T14:01:54.172Z,1013.65
2018-11-21T14:02:54.134Z,1013.64
2018-11-21T14:03:54.188Z,1013.66
2018-11-21T14:04:54.097Z,1013.60
2018-11-21T14:05:54.105Z,1013.63
2018-11-21T14:06:54.027Z,1013.55
2018-11-21T14:07:54.015Z,1013.60
2018-11-21T14:08:54.018Z,1013.65
2018-11-21T14:09:53.947Z,1013.70
2018-11-21T14:10:54.037Z,1013.75
2018-11-21T14:11:53.898Z,1013.73
2018-11-21T14:12:53.867Z,1013.76
2018-11-21T14:13:53.839Z,1013.75
2018-11-21T14:14:53.863Z,1013.72
2018-11-21T14:15:53.788Z,1013.75
2018-11-21T14:16:53.868Z,1013.74
2018-11-21T14:17:53.781Z,1013.72
2018-11-21T14:18:53.706Z,1013.74
2018-11-21T14:19:53.791Z,1013.72
2018-11-21T14:20:53.646Z,1013.71
2018-11-21T14:21:56.003Z,1013.71
2018-11-21T14:22:53.605Z,1013.71
2018-11-21T14:23:53.618Z,1013.71
2018-11-21T14:24:53.537Z,1013.72
2018-11-21T14:25:53.630Z,1013.69
2018-11-21T14:26:53.488Z,1013.70
2018-11-21T14:27:53.536Z,1013.72
2018-11-21T14:28:53.428Z,1013.72
2018-11-21T14:29:53.449Z,1013.76
2018-11-21T14:30:53.377Z,1013.76
2018-11-21T14:31:53.470Z,1013.75
2018-11-21T14:32:53.328Z,1013.72
2018-11-21T14:33:53.298Z,1013.76
2018-11-21T14:34:53.268Z,1013.80
2018-11-21T14:35:56.125Z,1013.80
2018-11-21T14:36:53.217Z,1013.85
2018-11-21T14:37:53.297Z,1013.91
2018-11-21T14:38:53.209Z,1013.93
2018-11-21T14:39:53.138Z,1013.93
2018-11-21T14:40:53.118Z,1013.97
2018-11-21T14:41:53.078Z,1013.95
2018-11-21T14:42:53.129Z,1013.93
2018-11-21T14:43:53.022Z,1013.94
2018-11-21T14:44:53.048Z,1013.93
2018-11-21T14:45:52.975Z,1013.86
2018-11-21T14:46:53.058Z,1013.87
2018-11-21T14:47:52.919Z,1013.88
2018-11-21T14:48:52.968Z,1013.89
2018-11-21T14:49:52.878Z,1013.90
2018-11-21T14:50:52.838Z,1013.91
2018-11-21T14:51:52.890Z,1013.97
2018-11-21T14:52:52.787Z,1013.97
2018-11-21T14:53:52.810Z,1013.97
2018-11-21T14:54:52.734Z,1013.96
2018-11-21T14:55:52.709Z,1013.97
2018-11-21T14:56:52.670Z,1013.92
2018-11-21T14:57:52.739Z,1013.94
2018-11-21T14:58:52.627Z,1013.96
2018-11-21T14:59:52.589Z,1013.96
2018-11-21T15:00:52.565Z,1013.99
2018-11-21T15:01:52.555Z,1013.95
2018-11-21T15:02:52.528Z,1014.01
2018-11-21T15:03:52.558Z,1014.04
2018-11-21T15:04:52.450Z,1014.08
2018-11-21T15:05:52.486Z,1014.10
2018-11-21T15:06:52.408Z,1014.14
2018-11-21T15:07:52.392Z,1014.10
2018-11-21T15:08:52.338Z,1014.12
2018-11-21T15:09:52.398Z,1014.13
2018-11-21T15:10:52.297Z,1014.10
2018-11-21T15:11:52.318Z,1014.08
2018-11-21T15:12:52.230Z,1014.06
2018-11-21T15:13:52.229Z,1014.06
2018-11-21T15:14:52.179Z,1014.10
2018-11-21T15:15:52.149Z,1014.12
2018-11-21T15:16:52.139Z,1014.14
2018-11-21T15:17:52.099Z,1014.15
2018-11-21T15:18:52.158Z,1014.12
2018-11-21T15:19:52.039Z,1014.11
2018-11-21T15:20:52.008Z,1014.14
2018-11-21T15:21:51.991Z,1014.11
2018-11-21T15:22:51.981Z,1014.12
2018-11-21T15:23:51.928Z,1014.14
2018-11-21T15:24:51.999Z,1014.14
2018-11-21T15:25:51.877Z,1014.10
2018-11-21T15:26:51.909Z,1014.08
2018-11-21T15:27:51.817Z,1014.08
2018-11-21T15:28:51.823Z,1014.09
2018-11-21T15:29:51.761Z,1014.11
2018-11-21T15:30:51.831Z,1014.14
2018-11-21T15:31:51.708Z,1014.15
2018-11-21T15:32:52.481Z,1014.10
2018-11-21T15:33:52.514Z,1014.11
2018-11-21T15:34:51.630Z,1014.13
2018-11-21T15:35:51.598Z,1014.09
2018-11-21T15:36:51.570Z,1014.09
2018-11-21T15:37:51.547Z,1014.11
2018-11-21T15:38:51.579Z,1014.10
2018-11-21T15:39:51.489Z,1014.16
2018-11-21T15:40:51.489Z,1014.16
2018-11-21T15:41:51.437Z,1014.18
2018-11-21T15:42:51.511Z,1014.17
2018-11-21T15:43:51.375Z,1014.17
2018-11-21T15:44:51.419Z,1014.14
2018-11-21T15:45:51.325Z,1014.11
2018-11-21T15:46:51.296Z,1014.13
2018-11-21T15:47:51.268Z,1014.12
2018-11-21T15:48:51.355Z,1014.13
2018-11-21T15:49:51.209Z,1014.12
2018-11-21T15:50:51.266Z,1014.10
2018-11-21T15:51:51.267Z,1014.15
2018-11-21T15:52:53.111Z,1014.10
2018-11-21T15:53:51.183Z,1014.16
2018-11-21T15:54:51.070Z,1014.22
2018-11-21T15:55:51.088Z,1014.22
2018-11-21T15:56:51.089Z,1014.25
2018-11-21T15:57:50.994Z,1014.24
2018-11-21T15:58:51.009Z,1014.24
2018-11-21T15:59:50.930Z,1014.23
2018-11-21T16:00:50.919Z,1014.22
2018-11-21T16:01:50.868Z,1014.25
2018-11-21T16:02:50.929Z,1014.24
2018-11-21T16:03:50.821Z,1014.27
2018-11-21T16:04:50.842Z,1014.24
2018-11-21T16:05:50.758Z,1014.26
2018-11-21T16:06:50.751Z,1014.24
2018-11-21T16:07:50.704Z,1014.25
2018-11-21T16:08:50.769Z,1014.24
2018-11-21T16:09:50.650Z,1014.30
2018-11-21T16:10:50.680Z,1014.26
2018-11-21T16:11:50.590Z,1014.29
2018-11-21T16:12:50.556Z,1014.30
2018-11-21T16:13:50.602Z,1014.28
2018-11-21T16:14:50.522Z,1014.31
2018-11-21T16:15:50.519Z,1014.29
2018-11-21T16:16:50.449Z,1014.30
2018-11-21T16:17:50.419Z,1014.33
2018-11-21T16:18:50.429Z,1014.28
2018-11-21T16:19:50.371Z,1014.31
2018-11-21T16:20:50.442Z,1014.26
2018-11-21T16:21:50.310Z,1014.28
2018-11-21T16:22:50.280Z,1014.24
2018-11-21T16:23:50.259Z,1014.30
2018-11-21T16:24:50.269Z,1014.26
2018-11-21T16:25:50.211Z,1014.28
2018-11-21T16:26:50.285Z,1014.27
2018-11-21T16:27:50.188Z,1014.34
2018-11-21T16:28:50.115Z,1014.36
2018-11-21T16:29:50.099Z,1014.36
2018-11-21T16:30:50.059Z,1014.37
2018-11-21T16:31:50.110Z,1014.34
2018-11-21T16:32:50.017Z,1014.33
2018-11-21T16:33:49.972Z,1014.33
2018-11-21T16:34:50.028Z,1014.34
2018-11-21T16:35:49.919Z,1014.38
2018-11-21T16:36:49.947Z,1014.37
2018-11-21T16:37:49.949Z,1014.35
2018-11-21T16:38:49.828Z,1014.41
2018-11-21T16:39:49.859Z,1014.42
2018-11-21T16:40:49.794Z,1014.43
2018-11-21T16:41:49.769Z,1014.47
2018-11-21T16:42:49.723Z,1014.48
2018-11-21T16:43:49.791Z,1014.47
2018-11-21T16:44:49.698Z,1014.51
2018-11-21T16:45:49.708Z,1014.49
2018-11-21T16:46:49.597Z,1014.55
2018-11-21T16:47:49.609Z,1014.54
2018-11-21T16:48:49.557Z,1014.55
2018-11-21T16:49:49.626Z,1014.54
2018-11-21T16:50:49.489Z,1014.56
2018-11-21T16:51:49.539Z,1014.57
2018-11-21T16:52:49.427Z,1014.60
2018-11-21T16:53:49.400Z,1014.57
2018-11-21T16:54:49.460Z,1014.61
2018-11-21T16:55:49.425Z,1014.65
2018-11-21T16:56:49.488Z,1014.67
2018-11-21T16:57:49.289Z,1014.65
2018-11-21T16:58:49.259Z,1014.67
2018-11-21T16:59:49.230Z,1014.67
2018-11-21T17:00:49.288Z,1014.69
2018-11-21T17:01:49.179Z,1014.65
2018-11-21T17:02:49.212Z,1014.72
2018-11-21T17:03:49.119Z,1014.72
2018-11-21T17:04:49.119Z,1014.75
2018-11-21T17:05:49.063Z,1014.75
2018-11-21T17:06:49.136Z,1014.75
2018-11-21T17:07:49.061Z,1014.77
2018-11-21T17:08:51.093Z,1014.73
2018-11-21T17:09:48.956Z,1014.72
2018-11-21T17:10:48.948Z,1014.73
2018-11-21T17:11:48.890Z,1014.77
2018-11-21T17:12:48.967Z,1014.76
2018-11-21T17:13:48.836Z,1014.76
2018-11-21T17:14:48.799Z,1014.76
2018-11-21T17:15:48.888Z,1014.77
2018-11-21T17:16:48.759Z,1014.84
2018-11-21T17:17:48.786Z,1014.79
2018-11-21T17:18:48.722Z,1014.82
2018-11-21T17:19:48.708Z,1014.82
2018-11-21T17:20:48.637Z,1014.80
2018-11-21T17:21:48.730Z,1014.83
2018-11-21T17:22:48.569Z,1014.84
2018-11-21T17:23:48.638Z,1014.83
2018-11-21T17:24:48.518Z,1014.86
2018-11-21T17:25:48.649Z,1014.90
2018-11-21T17:26:48.458Z,1014.86
2018-11-21T17:27:48.563Z,1014.85
2018-11-21T17:28:48.404Z,1014.88
2018-11-21T17:29:53.855Z,1014.87
2018-11-21T17:30:48.339Z,1014.87
2018-11-21T17:31:48.389Z,1014.85
2018-11-21T17:32:48.366Z,1014.87
2018-11-21T17:33:52.266Z,1014.92
2018-11-21T17:34:48.228Z,1014.88
2018-11-21T17:35:48.199Z,1014.93
2018-11-21T17:36:48.167Z,1014.92
2018-11-21T17:37:48.219Z,1014.92
2018-11-21T17:38:48.116Z,1014.90
2018-11-21T17:39:48.242Z,1014.97
2018-11-21T17:40:48.138Z,1014.97
2018-11-21T17:41:48.028Z,1014.97
2018-11-21T17:42:48.158Z,1014.98
2018-11-21T17:43:47.998Z,1014.92
2018-11-21T17:44:48.068Z,1015.01
2018-11-21T17:45:47.909Z,1015.04
2018-11-21T17:46:47.979Z,1015.03
2018-11-21T17:47:47.870Z,1015.04
2018-11-21T17:48:47.892Z,1015.05
2018-11-21T17:49:47.912Z,1015.04
2018-11-21T17:50:47.817Z,1015.03
2018-11-21T17:51:47.744Z,1015.07
2018-11-21T17:52:47.817Z,1014.98
2018-11-21T17:53:47.678Z,1015.04
2018-11-21T17:54:47.728Z,1014.94
2018-11-21T17:55:47.623Z,1015.00
2018-11-21T17:56:47.597Z,1014.98
2018-11-21T17:57:47.598Z,1014.92
2018-11-21T17:58:47.547Z,1014.98
2018-11-21T17:59:47.517Z,1014.95
2018-11-21T18:00:47.571Z,1014.99
2018-11-21T18:01:47.475Z,1014.97
2018-11-21T18:02:47.419Z,1014.98
2018-11-21T18:03:47.490Z,1014.99
2018-11-21T18:04:47.361Z,1014.98
2018-11-21T18:05:47.401Z,1015.01
2018-11-21T18:06:47.298Z,1015.00
2018-11-21T18:07:47.312Z,1015.02
2018-11-21T18:08:47.249Z,1014.99
2018-11-21T18:09:47.328Z,1014.99
2018-11-21T18:10:47.188Z,1015.02
2018-11-21T18:11:47.239Z,1015.02
2018-11-21T18:12:47.134Z,1015.02
2018-11-21T18:13:47.150Z,1015.08
2018-11-21T18:14:47.068Z,1015.10
2018-11-21T18:15:47.060Z,1015.12
2018-11-21T18:16:47.009Z,1015.08
2018-11-21T18:17:46.978Z,1015.15
2018-11-21T18:18:46.980Z,1015.13
2018-11-21T18:19:46.942Z,1015.14
2018-11-21T18:20:46.989Z,1015.15
2018-11-21T18:21:46.869Z,1015.17
2018-11-21T18:22:46.849Z,1015.15
2018-11-21T18:23:46.818Z,1015.22
2018-11-21T18:24:46.819Z,1015.22
2018-11-21T18:25:46.747Z,1015.21
2018-11-21T18:26:46.827Z,1015.26
2018-11-21T18:27:46.688Z,1015.28
2018-11-21T18:28:46.660Z,1015.27
2018-11-21T18:29:46.646Z,1015.29
2018-11-21T18:30:46.599Z,1015.31
2018-11-21T18:31:46.761Z,1015.32
2018-11-21T18:32:46.552Z,1015.32
2018-11-21T18:33:46.503Z,1015.29
2018-11-21T18:34:46.659Z,1015.30
2018-11-21T18:35:46.458Z,1015.33
2018-11-21T18:36:46.488Z,1015.36
2018-11-21T18:37:46.400Z,1015.34
2018-11-21T18:38:46.399Z,1015.35
2018-11-21T18:39:46.338Z,1015.35
2018-11-21T18:40:47.342Z,1015.40
2018-11-21T18:41:46.282Z,1015.39
2018-11-21T18:42:46.327Z,1015.45
2018-11-21T18:43:46.218Z,1015.42
2018-11-21T18:44:46.188Z,1015.46
2018-11-21T18:45:46.248Z,1015.45
2018-11-21T18:46:46.139Z,1015.44
2018-11-21T18:47:46.161Z,1015.47
2018-11-21T18:48:46.101Z,1015.43
2018-11-21T18:49:46.049Z,1015.46
2018-11-21T18:50:46.018Z,1015.45
2018-11-21T18:51:46.095Z,1015.47
2018-11-21T18:52:45.989Z,1015.46
2018-11-21T18:53:46.035Z,1015.50
2018-11-21T18:54:45.897Z,1015.54
2018-11-21T18:55:45.867Z,1015.50
2018-11-21T18:56:45.918Z,1015.52
2018-11-21T18:57:45.817Z,1015.56
2018-11-21T18:58:45.828Z,1015.54
2018-11-21T18:59:45.757Z,1015.56
2018-11-21T19:00:45.728Z,1015.62
2018-11-21T19:01:46.795Z,1015.64
2018-11-21T19:02:45.752Z,1015.59
2018-11-21T19:03:45.644Z,1015.60
2018-11-21T19:04:45.670Z,1015.58
2018-11-21T19:05:45.581Z,1015.58
2018-11-21T19:06:45.557Z,1015.55
2018-11-21T19:07:45.587Z,1015.53
2018-11-21T19:08:45.515Z,1015.59
2018-11-21T19:09:45.596Z,1015.58
2018-11-21T19:10:45.428Z,1015.56
2018-11-21T19:11:45.413Z,1015.57
2018-11-21T19:12:45.519Z,1015.61
2018-11-21T19:13:45.346Z,1015.58
2018-11-21T19:14:45.419Z,1015.63
2018-11-21T19:15:45.286Z,1015.55
2018-11-21T19:16:45.257Z,1015.59
2018-11-21T19:17:45.231Z,1015.55
2018-11-21T19:18:45.249Z,1015.56
2018-11-21T19:19:45.169Z,1015.61
2018-11-21T19:20:45.272Z,1015.57
2018-11-21T19:21:45.105Z,1015.55
2018-11-21T19:22:45.079Z,1015.59
2018-11-21T19:23:45.189Z,1015.62
2018-11-21T19:24:45.019Z,1015.62
2018-11-21T19:25:45.289Z,1015.61
2018-11-21T19:26:44.959Z,1015.67
2018-11-21T19:27:44.927Z,1015.67
2018-11-21T19:28:45.017Z,1015.68
2018-11-21T19:29:44.881Z,1015.66
2018-11-21T19:30:44.926Z,1015.65
2018-11-21T19:31:44.815Z,1015.63
2018-11-21T19:32:44.787Z,1015.70
2018-11-21T19:33:44.758Z,1015.65
2018-11-21T19:34:44.863Z,1015.68
2018-11-21T19:35:44.698Z,1015.71
2018-11-21T19:36:45.786Z,1015.72
2018-11-21T19:37:44.636Z,1015.71
2018-11-21T19:38:44.781Z,1015.71
2018-11-21T19:39:44.576Z,1015.69
2018-11-21T19:40:44.686Z,1015.74
2018-11-21T19:41:44.526Z,1015.76
2018-11-21T19:42:44.608Z,1015.80
2018-11-21T19:43:44.459Z,1015.77
2018-11-21T19:44:44.524Z,1015.74
2018-11-21T19:45:44.406Z,1015.79
2018-11-21T19:46:44.526Z,1015.76
2018-11-21T19:47:44.336Z,1015.74
2018-11-21T19:48:44.318Z,1015.76
2018-11-21T19:49:44.285Z,1015.78
2018-11-21T19:50:44.356Z,1015.82
2018-11-21T19:51:44.228Z,1015.80
2018-11-21T19:52:44.376Z,1015.79
2018-11-21T19:53:44.268Z,1015.80
2018-11-21T19:54:44.142Z,1015.80
2018-11-21T19:55:44.289Z,1015.81
2018-11-21T19:56:44.086Z,1015.85
2018-11-21T19:57:44.208Z,1015.86
2018-11-21T19:58:44.027Z,1015.84
2018-11-21T19:59:44.117Z,1015.79
2018-11-21T20:00:43.959Z,1015.79
2018-11-21T20:01:44.020Z,1015.83
2018-11-21T20:02:43.899Z,1015.76
2018-11-21T20:03:44.027Z,1015.77
2018-11-21T20:04:43.841Z,1015.80
2018-11-21T20:05:43.955Z,1015.76
2018-11-21T20:06:43.785Z,1015.78
2018-11-21T20:07:43.866Z,1015.74
2018-11-21T20:08:43.726Z,1015.75
2018-11-21T20:09:43.690Z,1015.71
2018-11-21T20:10:43.779Z,1015.73
2018-11-21T20:11:43.630Z,1015.75
2018-11-21T20:12:43.796Z,1015.82
2018-11-21T20:13:43.586Z,1015.74
2018-11-21T20:14:43.557Z,1015.81
2018-11-21T20:15:43.519Z,1015.74
2018-11-21T20:16:43.619Z,1015.76
2018-11-21T20:17:43.459Z,1015.78
2018-11-21T20:18:43.628Z,1015.80
2018-11-21T20:19:43.401Z,1015.74
2018-11-21T20:20:43.371Z,1015.78
2018-11-21T20:21:43.550Z,1015.81
2018-11-21T20:22:43.309Z,1015.81
2018-11-21T20:23:43.462Z,1015.75
2018-11-21T20:24:43.251Z,1015.76
2018-11-21T20:25:43.220Z,1015.79
2018-11-21T20:26:43.407Z,1015.82
2018-11-21T20:27:43.160Z,1015.84
2018-11-21T20:28:43.293Z,1015.80
2018-11-21T20:29:46.633Z,1015.82
2018-11-21T20:30:43.069Z,1015.78
2018-11-21T20:31:43.058Z,1015.78
2018-11-21T20:32:43.940Z,1015.76
2018-11-21T20:33:42.982Z,1015.79
2018-11-21T20:34:43.130Z,1015.78
2018-11-21T20:35:43.129Z,1015.78
2018-11-21T20:36:42.906Z,1015.78
2018-11-21T20:37:43.041Z,1015.79
2018-11-21T20:38:42.906Z,1015.77
2018-11-21T20:39:46.923Z,1015.77
2018-11-21T20:40:42.790Z,1015.77
2018-11-21T20:41:42.973Z,1015.79
2018-11-21T20:42:42.720Z,1015.74
2018-11-21T20:43:42.785Z,1015.81
2018-11-21T20:44:42.664Z,1015.78
2018-11-21T20:45:42.690Z,1015.75
2018-11-21T20:46:42.600Z,1015.77
2018-11-21T20:47:42.609Z,1015.79
2018-11-21T20:48:42.541Z,1015.78
2018-11-21T20:49:42.619Z,1015.82
2018-11-21T20:50:42.478Z,1015.81
2018-11-21T20:51:42.496Z,1015.78
2018-11-21T20:52:42.439Z,1015.78
2018-11-21T20:53:42.439Z,1015.76
2018-11-21T20:54:42.371Z,1015.75
2018-11-21T20:55:42.490Z,1015.74
2018-11-21T20:56:42.359Z,1015.78
2018-11-21T20:57:42.278Z,1015.80
2018-11-21T20:58:42.379Z,1015.75
2018-11-21T20:59:42.371Z,1015.79
2018-11-21T21:00:42.291Z,1015.76
2018-11-21T21:01:42.158Z,1015.77
2018-11-21T21:02:42.198Z,1015.74
2018-11-21T21:03:42.149Z,1015.80
2018-11-21T21:04:42.221Z,1015.78
2018-11-21T21:05:42.053Z,1015.76
2018-11-21T21:06:42.099Z,1015.77
2018-11-21T21:07:41.981Z,1015.71
2018-11-21T21:08:42.036Z,1015.75
2018-11-21T21:09:41.929Z,1015.74
2018-11-21T21:10:41.950Z,1015.77
2018-11-21T21:11:41.890Z,1015.75
2018-11-21T21:12:41.882Z,1015.74
2018-11-21T21:13:41.861Z,1015.74
2018-11-21T21:14:41.849Z,1015.77
2018-11-21T21:15:41.905Z,1015.74
2018-11-21T21:16:41.719Z,1015.78
2018-11-21T21:17:41.691Z,1015.77
2018-11-21T21:18:41.672Z,1015.73
2018-11-21T21:19:41.799Z,1015.71
2018-11-21T21:20:41.627Z,1015.72
2018-11-21T21:21:41.724Z,1015.69
2018-11-21T21:22:41.589Z,1015.74
2018-11-21T21:23:41.629Z,1015.67
2018-11-21T21:24:41.482Z,1015.69
2018-11-21T21:25:41.539Z,1015.70
2018-11-21T21:26:41.430Z,1015.67
2018-11-21T21:27:41.451Z,1015.70
2018-11-21T21:28:41.471Z,1015.66
2018-11-21T21:29:41.339Z,1015.70
2018-11-21T21:30:41.370Z,1015.66
2018-11-21T21:31:41.282Z,1015.66
2018-11-21T21:32:41.380Z,1015.68
2018-11-21T21:33:41.388Z,1015.68
2018-11-21T21:34:41.203Z,1015.75
2018-11-21T21:35:41.298Z,1015.65
2018-11-21T21:36:41.130Z,1015.69
2018-11-21T21:37:41.210Z,1015.72
2018-11-21T21:38:41.219Z,1015.72
2018-11-21T21:39:41.040Z,1015.74
2018-11-21T21:40:41.139Z,1015.76
2018-11-21T21:41:41.032Z,1015.72
2018-11-21T21:42:41.151Z,1015.74
2018-11-21T21:43:40.919Z,1015.75
2018-11-21T21:44:40.950Z,1015.71
2018-11-21T21:45:41.070Z,1015.72
2018-11-21T21:46:40.847Z,1015.69
2018-11-21T21:47:41.668Z,1015.70
2018-11-21T21:48:40.787Z,1015.72
2018-11-21T21:49:40.750Z,1015.67
2018-11-21T21:50:40.908Z,1015.68
2018-11-21T21:51:40.697Z,1015.76
2018-11-21T21:52:40.811Z,1015.70
2018-11-21T21:53:40.630Z,1015.74
2018-11-21T21:54:40.599Z,1015.69
2018-11-21T21:55:40.728Z,1015.70
2018-11-21T21:56:40.551Z,1015.70
2018-11-21T21:57:40.642Z,1015.71
2018-11-21T21:58:40.492Z,1015.72
2018-11-21T21:59:40.448Z,1015.72
2018-11-21T22:00:40.420Z,1015.72
2018-11-21T22:01:40.568Z,1015.72
2018-11-21T22:02:40.370Z,1015.73
2018-11-21T22:03:40.479Z,1015.73
2018-11-21T22:04:40.309Z,1015.75
2018-11-21T22:05:40.289Z,1015.75
2018-11-21T22:06:40.332Z,1015.72
2018-11-21T22:07:40.271Z,1015.76
2018-11-21T22:08:40.319Z,1015.73
2018-11-21T22:09:40.167Z,1015.78
2018-11-21T22:10:40.130Z,1015.75
2018-11-21T22:11:40.335Z,1015.77
2018-11-21T22:12:40.204Z,1015.79
2018-11-21T22:13:40.243Z,1015.82
2018-11-21T22:14:40.042Z,1015.81
2018-11-21T22:15:39.988Z,1015.84
2018-11-21T22:16:40.004Z,1015.84
2018-11-21T22:17:40.058Z,1015.83
2018-11-21T22:18:39.899Z,1015.81
2018-11-21T22:19:39.972Z,1015.88
2018-11-21T22:20:39.997Z,1015.85
2018-11-21T22:21:39.859Z,1015.92
2018-11-21T22:22:39.907Z,1015.90
2018-11-21T22:23:39.749Z,1015.89
2018-11-21T22:24:39.910Z,1015.94
2018-11-21T22:25:39.689Z,1015.86
2018-11-21T22:26:39.665Z,1015.88
2018-11-21T22:27:39.828Z,1015.89
2018-11-21T22:28:39.639Z,1015.90
2018-11-21T22:29:39.742Z,1015.91
2018-11-21T22:30:39.538Z,1015.88
2018-11-21T22:31:39.510Z,1015.87
2018-11-21T22:32:39.489Z,1015.86
2018-11-21T22:33:39.559Z,1015.88
2018-11-21T22:34:39.419Z,1015.88
2018-11-21T22:35:39.579Z,1015.89
2018-11-21T22:36:39.481Z,1015.94
2018-11-21T22:37:39.338Z,1015.89
2018-11-21T22:38:39.490Z,1015.91
2018-11-21T22:39:39.288Z,1015.92
2018-11-21T22:40:39.412Z,1015.94
2018-11-21T22:41:39.411Z,1015.92
2018-11-21T22:42:39.194Z,1015.89
2018-11-21T22:43:39.321Z,1015.91
2018-11-21T22:44:39.132Z,1015.90
2018-11-21T22:45:39.239Z,1015.94
2018-11-21T22:46:39.073Z,1015.86
2018-11-21T22:47:39.249Z,1015.95
2018-11-21T22:48:39.009Z,1015.93
2018-11-21T22:49:39.159Z,1015.90
2018-11-21T22:50:38.958Z,1015.89
2018-11-21T22:51:39.070Z,1015.89
2018-11-21T22:52:38.899Z,1015.88
2018-11-21T22:53:39.089Z,1015.89
2018-11-21T22:54:38.839Z,1015.88
2018-11-21T22:55:38.922Z,1015.87
2018-11-21T22:56:38.779Z,1015.87
2018-11-21T22:57:38.751Z,1015.88
2018-11-21T22:58:38.828Z,1015.87
2018-11-21T22:59:38.691Z,1015.88
2018-11-21T23:00:38.732Z,1015.87
2018-11-21T23:01:38.630Z,1015.89
2018-11-21T23:02:38.601Z,1015.88
2018-11-21T23:03:38.580Z,1015.90
2018-11-21T23:04:38.660Z,1015.88
2018-11-21T23:05:38.521Z,1015.88
2018-11-21T23:06:38.560Z,1015.89
2018-11-21T23:07:38.472Z,1015.92
2018-11-21T23:08:38.480Z,1015.92
2018-11-21T23:09:38.409Z,1015.93
2018-11-21T23:10:38.497Z,1015.93
2018-11-21T23:11:38.338Z,1015.96
2018-11-21T23:12:38.409Z,1015.93
2018-11-21T23:13:38.286Z,1015.96
2018-11-21T23:14:38.310Z,1015.95
2018-11-21T23:15:38.219Z,1015.90
2018-11-21T23:16:38.330Z,1015.92
2018-11-21T23:17:38.173Z,1015.93
2018-11-21T23:18:38.141Z,1015.90
2018-11-21T23:19:38.112Z,1015.87
2018-11-21T23:20:38.149Z,1015.89
2018-11-21T23:21:38.049Z,1015.91
2018-11-21T23:22:38.070Z,1015.92
2018-11-21T23:23:38.070Z,1015.92
2018-11-21T23:24:37.960Z,1015.91
2018-11-21T23:25:37.991Z,1015.93
2018-11-21T23:26:37.901Z,1015.94
2018-11-21T23:27:38.003Z,1015.95
2018-11-21T23:28:37.842Z,1015.93
2018-11-21T23:29:37.921Z,1015.96
2018-11-21T23:30:37.779Z,1015.93
2018-11-21T23:31:37.829Z,1015.92
2018-11-21T23:32:37.721Z,1015.95
2018-11-21T23:33:37.830Z,1015.92
2018-11-21T23:34:37.673Z,1015.91
2018-11-21T23:35:37.751Z,1015.91
2018-11-21T23:36:37.610Z,1015.92
2018-11-21T23:37:37.661Z,1015.91
2018-11-21T23:38:37.550Z,1015.91